Valmy, Nevada
Current Conditions -  °F | °C
As of 9:56 AM on Thursday 18 Dec 2014 (Local Time) from KWMC Reporting Station
Overcast Overcast  
Wind Chill: 33°   Ceiling: 4200
Heat Index: 37°   Visibility: 10mi
Dew Point: 30°   Wind: 5mph
Humidity: 76%   Direction: 40°NE
Pressure: 30.14"   Gusts: NA
Location:  40.79°N, 117.13°W
Report Text: KWMC 181756Z AUTO 04004KT 10SM OVC042 03/M01 A3014 RMK AO2 SLP213 T00281011 10039 21039 51010
Loading
Personal Weather Stations






























Interactive Weather Map New forecast layout! Learn more

10-Day Weather Forecast

Advertisements
Track Severe Weather on mobile